createdAt,value
2022-08-12T00:00:25.978Z,25
2022-08-12T00:02:07.127Z,24.9
2022-08-12T00:03:10.075Z,25
2022-08-12T00:04:23.751Z,25
2022-08-12T00:05:27.223Z,25
2022-08-12T00:06:29.648Z,25.1
2022-08-12T00:07:32.559Z,25
2022-08-12T00:08:38.853Z,25
2022-08-12T00:09:42.040Z,25
2022-08-12T00:10:44.117Z,25
2022-08-12T00:11:47.128Z,25
2022-08-12T00:12:49.702Z,25
2022-08-12T00:13:52.622Z,25
2022-08-12T00:14:55.251Z,25
2022-08-12T00:15:57.558Z,25
2022-08-12T00:17:02.556Z,24.9
2022-08-12T00:18:05.442Z,25
2022-08-12T00:19:10.121Z,24.8
2022-08-12T00:20:12.976Z,24.9
2022-08-12T00:21:15.535Z,24.9
2022-08-12T00:22:18.568Z,24.9
2022-08-12T00:23:22.254Z,24.8
2022-08-12T00:24:24.607Z,24.8
2022-08-12T00:26:25.481Z,24.8
2022-08-12T00:27:45.487Z,24.6
2022-08-12T00:28:48.336Z,24.6
2022-08-12T00:29:51.185Z,24.7
2022-08-12T00:30:54.371Z,24.5
2022-08-12T00:31:56.372Z,24.5
2022-08-12T00:33:05.207Z,24.5
2022-08-12T00:34:07.960Z,24.5
2022-08-12T00:35:14.837Z,24.6
2022-08-12T00:36:41.033Z,24.5
2022-08-12T00:37:52.423Z,24.5
2022-08-12T00:38:54.812Z,24.4
2022-08-12T00:39:58.584Z,24.4
2022-08-12T00:41:01.242Z,24.5
2022-08-12T00:42:04.076Z,24.5
2022-08-12T00:43:06.988Z,24.5
2022-08-12T00:44:11.719Z,24.5
2022-08-12T00:45:15.022Z,24.5
2022-08-12T00:46:17.988Z,24.6
2022-08-12T00:47:27.594Z,24.5
2022-08-12T00:48:30.161Z,24.4
2022-08-12T00:49:32.451Z,24.5
2022-08-12T00:50:35.801Z,24.5
2022-08-12T00:51:38.563Z,24.5
2022-08-12T00:52:42.445Z,24.5
2022-08-12T00:53:44.723Z,24.4
2022-08-12T00:54:47.073Z,24.5
2022-08-12T00:55:49.623Z,24.5
2022-08-12T00:56:53.175Z,24.4
2022-08-12T00:57:56.088Z,24.4
2022-08-12T00:58:58.438Z,24.3
2022-08-12T01:00:00.818Z,24.3
2022-08-12T01:01:03.811Z,24.2
2022-08-12T01:02:14.239Z,24.1
2022-08-12T01:03:17.669Z,24.1
2022-08-12T01:04:20.796Z,24.1
2022-08-12T01:05:23.365Z,24.1
2022-08-12T01:06:25.722Z,24
2022-08-12T01:07:28.692Z,24
2022-08-12T01:08:31.601Z,24
2022-08-12T01:09:34.568Z,24
2022-08-12T01:10:37.208Z,23.9
2022-08-12T01:11:39.835Z,23.9
2022-08-12T01:12:42.366Z,23.8
2022-08-12T01:13:44.657Z,23.9
2022-08-12T01:14:47.547Z,23.9
2022-08-12T01:15:50.210Z,23.8
2022-08-12T01:16:52.627Z,23.8
2022-08-12T01:17:55.821Z,23.8
2022-08-12T01:18:58.743Z,23.7
2022-08-12T01:20:01.928Z,23.7
2022-08-12T01:21:04.272Z,23.7
2022-08-12T01:22:06.679Z,23.7
2022-08-12T01:23:09.524Z,23.7
2022-08-12T01:24:32.962Z,23.6
2022-08-12T01:25:57.317Z,23.5
2022-08-12T01:27:00.454Z,23.5
2022-08-12T01:28:03.364Z,23.6
2022-08-12T01:29:06.775Z,23.7
2022-08-12T01:30:10.107Z,23.6
2022-08-12T01:31:18.014Z,23.6
2022-08-12T01:32:20.850Z,23.6
2022-08-12T01:33:23.260Z,23.7
2022-08-12T01:34:39.790Z,23.7
2022-08-12T01:35:42.624Z,23.6
2022-08-12T01:36:45.195Z,23.6
2022-08-12T01:37:47.885Z,23.5
2022-08-12T01:38:49.966Z,23.5
2022-08-12T01:40:47.352Z,23.5
2022-08-12T01:41:55.228Z,23.6
2022-08-12T01:42:58.194Z,23.6
2022-08-12T01:44:00.762Z,23.6
2022-08-12T01:45:03.637Z,23.6
2022-08-12T01:46:05.764Z,23.6
2022-08-12T01:47:08.905Z,23.6
2022-08-12T01:48:11.800Z,23.7
2022-08-12T01:49:22.286Z,23.7
2022-08-12T01:50:24.869Z,23.7
2022-08-12T01:52:23.763Z,23.6
2022-08-12T01:53:26.818Z,23.2
2022-08-12T01:54:29.438Z,23.1
2022-08-12T01:55:32.266Z,23
2022-08-12T01:56:34.861Z,23
2022-08-12T01:58:03.408Z,23
2022-08-12T01:59:13.120Z,22.9
2022-08-12T02:00:16.238Z,22.9
2022-08-12T02:01:20.094Z,22.9
2022-08-12T02:02:23.031Z,22.8
2022-08-12T02:03:26.430Z,22.8
2022-08-12T02:04:29.269Z,22.8
2022-08-12T02:05:34.278Z,22.9
2022-08-12T02:06:37.133Z,23
2022-08-12T02:07:39.203Z,23
2022-08-12T02:08:41.833Z,23
2022-08-12T02:09:45.004Z,23
2022-08-12T02:10:53.684Z,23
2022-08-12T02:12:09.537Z,23
2022-08-12T02:13:12.598Z,23.1
2022-08-12T02:14:15.413Z,23.4
2022-08-12T02:15:17.755Z,23.4
2022-08-12T02:16:20.603Z,23.4
2022-08-12T02:17:57.787Z,23.4
2022-08-12T02:19:00.916Z,23.5
2022-08-12T02:20:03.792Z,23.5
2022-08-12T02:21:06.723Z,23.5
2022-08-12T02:22:09.655Z,23.4
2022-08-12T02:23:12.570Z,23.3
2022-08-12T02:24:15.194Z,23.3
2022-08-12T02:25:17.891Z,23.3
2022-08-12T02:26:20.736Z,23.2
2022-08-12T02:27:23.715Z,23.3
2022-08-12T02:28:25.793Z,23.2
2022-08-12T02:29:28.086Z,23.2
2022-08-12T02:30:43.813Z,23.2
2022-08-12T02:31:46.657Z,23.3
2022-08-12T02:32:49.067Z,23.2
2022-08-12T02:33:52.130Z,23.2
2022-08-12T02:34:54.970Z,23.3
2022-08-12T02:35:58.153Z,23.3
2022-08-12T02:37:05.277Z,23.2
2022-08-12T02:38:08.248Z,23.2
2022-08-12T02:39:10.986Z,23.2
2022-08-12T02:40:14.043Z,23.1
2022-08-12T02:41:16.610Z,23.2
2022-08-12T02:42:19.514Z,23.2
2022-08-12T02:43:22.368Z,23.2
2022-08-12T02:44:25.250Z,23.3
2022-08-12T02:45:28.212Z,23.3
2022-08-12T02:46:30.232Z,23.4
2022-08-12T02:48:02.876Z,23.3
2022-08-12T02:49:05.998Z,23.3
2022-08-12T02:50:08.700Z,23.2
2022-08-12T02:51:11.333Z,23.2
2022-08-12T02:52:13.685Z,23.1
2022-08-12T02:53:16.374Z,23.1
2022-08-12T02:54:18.738Z,23
2022-08-12T02:55:36.243Z,23
2022-08-12T02:56:39.884Z,22.9
2022-08-12T02:57:42.793Z,22.9
2022-08-12T02:58:47.987Z,22.8
2022-08-12T02:59:52.471Z,22.8
2022-08-12T03:00:55.435Z,22.7
2022-08-12T03:01:58.786Z,22.8
2022-08-12T03:03:01.715Z,22.7
2022-08-12T03:04:04.572Z,22.7
2022-08-12T03:05:06.967Z,22.7
2022-08-12T03:06:09.046Z,22.7
2022-08-12T03:07:11.371Z,22.6
2022-08-12T03:08:36.638Z,22.6
2022-08-12T03:10:37.920Z,22.5
2022-08-12T03:11:53.020Z,22.7
2022-08-12T03:12:58.060Z,22.7
2022-08-12T03:14:01.518Z,22.7
2022-08-12T03:15:04.090Z,22.8
2022-08-12T03:16:07.324Z,22.9
2022-08-12T03:17:10.227Z,23
2022-08-12T03:18:30.119Z,23
2022-08-12T03:19:33.021Z,22.9
2022-08-12T03:20:36.482Z,23.1
2022-08-12T03:22:10.438Z,23
2022-08-12T03:23:32.428Z,23.1
2022-08-12T03:24:39.181Z,23
2022-08-12T03:25:41.524Z,23
2022-08-12T03:26:44.153Z,23
2022-08-12T03:27:47.334Z,23.1
2022-08-12T03:28:50.870Z,22.9
2022-08-12T03:29:53.643Z,23
2022-08-12T03:30:59.592Z,23
2022-08-12T03:32:02.726Z,23
2022-08-12T03:33:05.570Z,23
2022-08-12T03:34:07.628Z,23
2022-08-12T03:35:43.369Z,23.1
2022-08-12T03:36:46.217Z,23
2022-08-12T03:37:49.332Z,23.1
2022-08-12T03:38:52.004Z,23
2022-08-12T03:39:55.698Z,23
2022-08-12T03:40:58.692Z,22.9
2022-08-12T03:42:01.851Z,23
2022-08-12T03:43:04.453Z,23.1
2022-08-12T03:44:06.839Z,23.1
2022-08-12T03:45:09.168Z,23.1
2022-08-12T03:46:12.620Z,23.1
2022-08-12T03:47:14.700Z,23.1
2022-08-12T03:48:20.907Z,23.1
2022-08-12T03:49:23.878Z,23.1
2022-08-12T03:50:26.444Z,23
2022-08-12T03:51:28.861Z,23.1
2022-08-12T03:52:31.649Z,23.1
2022-08-12T03:53:34.570Z,23
2022-08-12T03:54:44.192Z,23.1
2022-08-12T03:55:46.826Z,23.1
2022-08-12T03:56:49.116Z,23.1
2022-08-12T03:57:52.296Z,23.1
2022-08-12T03:58:55.264Z,23.2
2022-08-12T03:59:58.052Z,23.3
2022-08-12T04:01:01.712Z,23.3
2022-08-12T04:02:04.673Z,23.3
2022-08-12T04:03:13.965Z,23.4
2022-08-12T04:04:16.584Z,23.4
2022-08-12T04:05:57.059Z,23.4
2022-08-12T04:07:00.399Z,23.4
2022-08-12T04:08:02.414Z,23.3
2022-08-12T04:09:04.493Z,23.3
2022-08-12T04:10:07.430Z,23.2
2022-08-12T04:11:09.781Z,23.2
2022-08-12T04:12:12.461Z,23.2
2022-08-12T04:13:14.761Z,23.2
2022-08-12T04:14:17.448Z,23.2
2022-08-12T04:15:20.091Z,23.1
2022-08-12T04:16:22.670Z,23
2022-08-12T04:17:25.581Z,23
2022-08-12T04:18:28.705Z,23.1
2022-08-12T04:19:31.130Z,23
2022-08-12T04:20:34.320Z,23
2022-08-12T04:21:42.287Z,23.2
2022-08-12T04:23:06.745Z,23.1
2022-08-12T04:24:09.377Z,23
2022-08-12T04:25:11.916Z,23.2
2022-08-12T04:26:16.580Z,23.1
2022-08-12T04:27:18.719Z,23.2
2022-08-12T04:28:21.348Z,23.2
2022-08-12T04:30:34.921Z,23
2022-08-12T04:31:37.479Z,23.2
2022-08-12T04:32:47.161Z,23.3
2022-08-12T04:33:50.672Z,23.3
2022-08-12T04:34:53.854Z,23.3
2022-08-12T04:35:56.751Z,23.3
2022-08-12T04:37:00.205Z,23.4
2022-08-12T04:38:02.915Z,23.4
2022-08-12T04:39:06.369Z,23.3
2022-08-12T04:40:09.311Z,23.4
2022-08-12T04:41:12.203Z,23.3
2022-08-12T04:42:14.257Z,23.1
2022-08-12T04:44:03.596Z,23.3
2022-08-12T04:45:06.936Z,23.5
2022-08-12T04:46:09.284Z,23.6
2022-08-12T04:47:12.490Z,23.7
2022-08-12T04:48:17.156Z,23.7
2022-08-12T04:49:21.234Z,23.8
2022-08-12T04:50:38.487Z,23.9
2022-08-12T04:51:40.781Z,23.9
2022-08-12T04:52:44.418Z,23.8
2022-08-12T04:53:46.899Z,23.9
2022-08-12T04:54:49.739Z,23.8
2022-08-12T04:55:53.270Z,23.9
2022-08-12T04:57:06.588Z,24
2022-08-12T04:58:09.163Z,23.9
2022-08-12T04:59:12.117Z,24
2022-08-12T05:00:15.301Z,24
2022-08-12T05:01:18.216Z,24
2022-08-12T05:02:24.218Z,24
2022-08-12T05:03:26.960Z,23.9
2022-08-12T05:04:29.038Z,23.8
2022-08-12T05:05:37.792Z,23.6
2022-08-12T05:06:40.436Z,23.6
2022-08-12T05:07:56.491Z,23.5
2022-08-12T05:09:00.169Z,23.6
2022-08-12T05:10:04.882Z,23.6
2022-08-12T05:11:07.725Z,23.6
2022-08-12T05:12:11.015Z,23.5
2022-08-12T05:13:13.997Z,23.5
2022-08-12T05:14:16.505Z,23.6
2022-08-12T05:15:31.651Z,23.5
2022-08-12T05:16:39.021Z,23.5
2022-08-12T05:17:48.229Z,23.5
2022-08-12T05:18:52.067Z,23.6
2022-08-12T05:20:01.002Z,23.5
2022-08-12T05:21:05.205Z,23.6
2022-08-12T05:22:08.687Z,23.7
2022-08-12T05:23:15.101Z,23.6
2022-08-12T05:24:17.945Z,23.7
2022-08-12T05:25:23.866Z,23.8
2022-08-12T05:26:26.506Z,23.8
2022-08-12T05:27:32.452Z,23.9
2022-08-12T05:28:34.793Z,23.6
2022-08-12T05:30:10.068Z,23.8
2022-08-12T05:31:12.916Z,23.7
2022-08-12T05:32:15.831Z,23.7
2022-08-12T05:33:18.191Z,23.7
2022-08-12T05:34:27.554Z,23.3
2022-08-12T05:35:30.468Z,23.3
2022-08-12T05:36:33.950Z,23.4
2022-08-12T05:37:36.598Z,23.7
2022-08-12T05:38:38.399Z,23.8
2022-08-12T05:39:40.769Z,23.9
2022-08-12T05:40:44.154Z,24
2022-08-12T05:41:46.795Z,23.9
2022-08-12T05:42:49.374Z,23.9
2022-08-12T05:43:53.189Z,24.1
2022-08-12T05:44:55.698Z,24.1
2022-08-12T05:45:58.167Z,24.2
2022-08-12T05:47:00.271Z,24.2
2022-08-12T05:48:03.329Z,24.2
2022-08-12T05:49:06.181Z,24.2
2022-08-12T05:50:08.474Z,24.2
2022-08-12T05:51:15.893Z,24.2
2022-08-12T05:52:22.182Z,24.2
2022-08-12T05:53:24.811Z,24.3
2022-08-12T05:54:58.956Z,24.4
2022-08-12T05:56:02.053Z,24.5
2022-08-12T05:57:04.691Z,24.4
2022-08-12T05:58:06.985Z,24.4
2022-08-12T05:59:09.947Z,24.5
2022-08-12T06:00:13.145Z,24.5
2022-08-12T06:02:14.805Z,24.6
2022-08-12T06:03:20.696Z,24.5
2022-08-12T06:04:23.349Z,24.6
2022-08-12T06:05:26.538Z,24.7
2022-08-12T06:06:39.032Z,24.6
2022-08-12T06:08:04.418Z,24.6
2022-08-12T06:09:06.650Z,24.6
2022-08-12T06:10:10.209Z,24.6
2022-08-12T06:11:13.126Z,24.7
2022-08-12T06:12:16.093Z,24.8
2022-08-12T06:13:57.322Z,24.8
2022-08-12T06:15:13.596Z,24.7
2022-08-12T06:16:15.827Z,24.8
2022-08-12T06:17:17.624Z,24.8
2022-08-12T06:18:21.087Z,24.9
2022-08-12T06:19:23.391Z,24.9
2022-08-12T06:21:40.707Z,25
2022-08-12T06:22:44.018Z,25
2022-08-12T06:23:47.134Z,25.1
2022-08-12T06:24:49.934Z,25.1
2022-08-12T06:25:53.153Z,25.1
2022-08-12T06:26:56.118Z,25.3
2022-08-12T06:28:09.710Z,25.3
2022-08-12T06:29:12.556Z,25.3
2022-08-12T06:30:40.273Z,25.4
2022-08-12T06:31:43.175Z,25.5
2022-08-12T06:35:46.954Z,25.5
2022-08-12T06:37:01.874Z,25.8
2022-08-12T06:38:05.559Z,25.8
2022-08-12T06:39:17.271Z,25.9
2022-08-12T06:40:20.059Z,26
2022-08-12T06:41:22.907Z,26
2022-08-12T06:42:34.286Z,26
2022-08-12T06:44:09.224Z,26
2022-08-12T06:45:13.668Z,26
2022-08-12T06:46:16.564Z,26
2022-08-12T06:47:18.912Z,26
2022-08-12T06:48:21.836Z,26
2022-08-12T06:49:25.239Z,26.1
2022-08-12T06:50:40.421Z,26.1
2022-08-12T06:51:58.225Z,26.2
2022-08-12T06:53:01.355Z,26.2
2022-08-12T06:54:04.573Z,26.2
2022-08-12T06:55:07.806Z,26.3
2022-08-12T06:56:14.235Z,26.3
2022-08-12T06:58:11.532Z,26.4
2022-08-12T06:59:14.713Z,26.4
2022-08-12T07:00:17.086Z,26.4
2022-08-12T07:01:20.460Z,26.4
2022-08-12T07:02:23.639Z,26.3
2022-08-12T07:03:26.023Z,26.3
2022-08-12T07:04:44.913Z,26.3
2022-08-12T07:05:47.270Z,26.2
2022-08-12T07:06:53.601Z,26.3
2022-08-12T07:07:56.509Z,26.3
2022-08-12T07:08:59.756Z,26.4
2022-08-12T07:10:10.083Z,26.4
2022-08-12T07:11:12.669Z,26.4
2022-08-12T07:12:18.133Z,26.5
2022-08-12T07:13:20.477Z,26.5
2022-08-12T07:14:23.177Z,26.5
2022-08-12T07:15:25.536Z,26.6
2022-08-12T07:16:28.453Z,26.6
2022-08-12T07:17:31.352Z,26.6
2022-08-12T07:18:33.417Z,26.7
2022-08-12T07:19:46.672Z,26.7
2022-08-12T07:20:55.290Z,26.8
2022-08-12T07:22:04.136Z,26.8
2022-08-12T07:23:07.046Z,26.9
2022-08-12T07:24:09.895Z,26.8
2022-08-12T07:25:12.474Z,26.9
2022-08-12T07:26:17.652Z,27
2022-08-12T07:27:20.282Z,27
2022-08-12T07:28:22.949Z,27
2022-08-12T07:30:06.220Z,27
2022-08-12T07:31:09.914Z,27
2022-08-12T07:32:12.829Z,27
2022-08-12T07:33:15.687Z,27
2022-08-12T07:34:18.592Z,27
2022-08-12T07:35:21.320Z,27
2022-08-12T07:36:23.671Z,27
2022-08-12T07:37:26.245Z,27
2022-08-12T07:38:33.922Z,27
2022-08-12T07:39:51.089Z,26.9
2022-08-12T07:41:03.889Z,27
2022-08-12T07:42:06.818Z,26.9
2022-08-12T07:43:09.184Z,27
2022-08-12T07:44:11.545Z,27
2022-08-12T07:45:14.765Z,27
2022-08-12T07:46:17.475Z,27.1
2022-08-12T07:47:20.379Z,27.1
2022-08-12T07:48:24.617Z,27.1
2022-08-12T07:49:27.583Z,27.1
2022-08-12T07:50:30.712Z,27.2
2022-08-12T07:51:33.683Z,27.2
2022-08-12T07:52:36.619Z,27.2
2022-08-12T07:54:04.090Z,27.3
2022-08-12T07:55:06.691Z,27.3
2022-08-12T07:56:09.878Z,27.3
2022-08-12T07:57:12.853Z,27.3
2022-08-12T07:58:15.774Z,27.4
2022-08-12T07:59:18.185Z,27.4
2022-08-12T08:00:20.540Z,27.5
2022-08-12T08:01:24.341Z,27.5
2022-08-12T08:02:38.383Z,27.5
2022-08-12T08:03:50.844Z,27.6
2022-08-12T08:04:54.027Z,27.6
2022-08-12T08:05:56.049Z,27.7
2022-08-12T08:06:58.952Z,27.7
2022-08-12T08:08:02.154Z,27.8
2022-08-12T08:09:04.558Z,27.9
2022-08-12T08:10:07.522Z,27.9
2022-08-12T08:11:16.046Z,27.9
2022-08-12T08:12:23.642Z,27.9
2022-08-12T08:13:27.666Z,27.9
2022-08-12T08:14:30.651Z,28
2022-08-12T08:16:05.636Z,28
2022-08-12T08:17:08.156Z,28.1
2022-08-12T08:18:10.792Z,28.1
2022-08-12T08:19:13.770Z,28.2
2022-08-12T08:20:16.336Z,28.2
2022-08-12T08:21:18.963Z,28.2
2022-08-12T08:22:44.275Z,28.3
2022-08-12T08:24:11.238Z,28.3
2022-08-12T08:25:38.950Z,28.4
2022-08-12T08:26:41.584Z,28.5
2022-08-12T08:27:44.215Z,28.6
2022-08-12T08:28:46.855Z,28.6
2022-08-12T08:29:49.249Z,28.7
2022-08-12T08:30:52.934Z,28.7
2022-08-12T08:31:55.352Z,28.8
2022-08-12T08:32:58.249Z,28.8
2022-08-12T08:34:55.771Z,28.9
2022-08-12T08:36:03.537Z,29
2022-08-12T08:37:19.774Z,29
2022-08-12T08:38:36.644Z,29.1
2022-08-12T08:39:39.842Z,29.2
2022-08-12T08:40:42.308Z,29.2
2022-08-12T08:42:21.698Z,29.3
2022-08-12T08:43:44.930Z,29.3
2022-08-12T08:44:59.670Z,29.4
2022-08-12T08:46:02.577Z,29.4
2022-08-12T08:47:05.218Z,29.5
2022-08-12T08:48:07.570Z,29.5
2022-08-12T08:49:10.486Z,29.6
2022-08-12T08:50:12.630Z,29.6
2022-08-12T08:51:16.036Z,29.7
2022-08-12T08:52:42.461Z,29.8
2022-08-12T08:53:54.099Z,29.8
2022-08-12T08:54:56.672Z,29.9
2022-08-12T08:56:07.515Z,29.9
2022-08-12T08:57:10.927Z,30
2022-08-12T08:58:13.894Z,30
2022-08-12T08:59:16.458Z,30.1
2022-08-12T09:00:19.298Z,30.1
2022-08-12T09:01:22.196Z,30.2
2022-08-12T09:02:26.532Z,30.2
2022-08-12T09:05:26.403Z,30.3
2022-08-12T09:30:16.053Z,32
2022-08-12T09:33:18.753Z,32
2022-08-12T09:36:05.683Z,32.5
2022-08-12T09:37:25.766Z,32.6
2022-08-12T09:38:36.850Z,32.7
2022-08-12T09:43:25.423Z,32.8
2022-08-12T09:44:42.107Z,33
2022-08-12T09:46:27.159Z,33.1
2022-08-12T09:47:35.635Z,33.2
2022-08-12T09:48:59.285Z,33.2
2022-08-12T09:50:21.397Z,33.2
2022-08-12T09:51:45.995Z,33.3
2022-08-12T09:53:05.327Z,33.4
2022-08-12T09:54:48.647Z,33.5
2022-08-12T09:59:02.226Z,33.6
2022-08-12T10:00:54.227Z,34.1
2022-08-12T10:02:51.572Z,34.3
2022-08-12T10:04:06.992Z,34.4
2022-08-12T10:05:21.671Z,34.4
2022-08-12T10:06:58.191Z,34.4
2022-08-12T10:08:04.139Z,34.4
2022-08-12T10:09:09.743Z,34.5
2022-08-12T10:10:32.859Z,34.4
2022-08-12T10:12:14.594Z,34.6
2022-08-12T10:14:17.590Z,34.5
2022-08-12T10:16:07.152Z,34.4
2022-08-12T10:17:26.329Z,34.5
2022-08-12T10:18:30.137Z,34.3
2022-08-12T10:19:38.285Z,34.4
2022-08-12T10:20:40.645Z,34.3
2022-08-12T10:21:44.284Z,34.6
2022-08-12T10:22:53.266Z,34.5
2022-08-12T10:23:59.001Z,34.6
2022-08-12T10:25:02.097Z,34.7
2022-08-12T10:26:41.143Z,34.9
2022-08-12T10:28:25.920Z,34.8
2022-08-12T10:31:05.613Z,35.2
2022-08-12T10:32:57.745Z,35.2
2022-08-12T10:34:28.511Z,35.5
2022-08-12T10:35:40.064Z,35.6
2022-08-12T10:36:52.667Z,35.7
2022-08-12T10:38:56.894Z,35.7
2022-08-12T10:40:30.935Z,35.8
2022-08-12T10:42:01.882Z,35.9
2022-08-12T10:43:06.073Z,36
2022-08-12T10:44:18.277Z,36.2
2022-08-12T10:45:25.512Z,36.3
2022-08-12T10:46:33.424Z,36.3
2022-08-12T10:48:36.938Z,36.6
2022-08-12T10:52:05.133Z,36.7
2022-08-12T10:53:52.937Z,37.3
2022-08-12T10:55:17.486Z,37.3
2022-08-12T10:56:22.787Z,37.3
2022-08-12T10:58:32.977Z,37.3
2022-08-12T11:04:22.113Z,37.5
2022-08-12T11:08:48.006Z,38
2022-08-12T11:10:04.482Z,38.3
2022-08-12T11:13:00.618Z,38.3
2022-08-12T11:14:55.129Z,38.7
2022-08-12T11:16:30.190Z,38.9
2022-08-12T11:18:03.525Z,39
2022-08-12T11:19:08.239Z,39
2022-08-12T11:20:16.547Z,39.2
2022-08-12T11:22:01.153Z,39.2
2022-08-12T11:23:41.339Z,39
2022-08-12T11:24:59.220Z,39.3
2022-08-12T11:26:09.258Z,39.4
2022-08-12T11:27:15.482Z,39.5
2022-08-12T11:28:39.582Z,39.5
2022-08-12T11:30:33.760Z,39.4
2022-08-12T11:32:04.120Z,39.8
2022-08-12T11:34:55.051Z,39.9
2022-08-12T11:36:02.994Z,39.7
2022-08-12T11:37:27.437Z,39.7
2022-08-12T11:38:29.737Z,39.7
2022-08-12T11:41:10.852Z,39.8
2022-08-12T11:42:14.187Z,39.9
2022-08-12T11:43:21.520Z,39.9
2022-08-12T11:44:44.942Z,39.5
2022-08-12T11:45:57.243Z,39.6
2022-08-12T11:47:00.720Z,39.7
2022-08-12T11:48:04.626Z,39.7
2022-08-12T11:49:06.969Z,39.7
2022-08-12T11:50:20.668Z,39.7
2022-08-12T11:51:40.845Z,40
2022-08-12T11:52:58.869Z,40.1
2022-08-12T11:54:03.482Z,40.4
2022-08-12T11:55:05.566Z,40.4
2022-08-12T11:56:11.825Z,40.4
2022-08-12T12:03:06.491Z,40.2
2022-08-12T12:04:11.759Z,40.1
2022-08-12T12:05:18.419Z,40.2
2022-08-12T12:06:25.640Z,40
2022-08-12T12:08:54.180Z,40.1
2022-08-12T12:09:57.251Z,40
2022-08-12T12:11:00.780Z,40.3
2022-08-12T12:12:04.272Z,40.5
2022-08-12T12:14:11.841Z,40.6
2022-08-12T12:15:41.870Z,39.8
2022-08-12T12:16:52.718Z,39.9
2022-08-12T12:17:57.208Z,39.9
2022-08-12T12:18:59.346Z,39.9
2022-08-12T12:20:01.430Z,40.1
2022-08-12T12:21:10.994Z,40.3
2022-08-12T12:22:31.548Z,40.4
2022-08-12T12:23:37.638Z,40.3
2022-08-12T12:24:41.261Z,40.2
2022-08-12T12:26:39.097Z,40.3
2022-08-12T12:28:07.599Z,40.5
2022-08-12T12:30:31.768Z,40.4
2022-08-12T12:32:14.622Z,40.6
2022-08-12T12:33:19.295Z,40.5
2022-08-12T12:34:32.063Z,40.7
2022-08-12T12:36:31.225Z,40.8
2022-08-12T12:38:13.612Z,40.6
2022-08-12T12:39:22.227Z,40.8
2022-08-12T12:40:40.025Z,41
2022-08-12T12:43:06.970Z,41.1
2022-08-12T12:44:53.910Z,41.1
2022-08-12T12:45:58.509Z,41.2
2022-08-12T12:47:02.267Z,41.5
2022-08-12T12:48:05.555Z,41.5
2022-08-12T12:49:16.302Z,41.5
2022-08-12T12:50:52.633Z,41.6
2022-08-12T12:52:29.153Z,41.6
2022-08-12T12:54:10.821Z,41.7
2022-08-12T12:55:15.038Z,41.7
2022-08-12T12:56:17.418Z,41.6
2022-08-12T12:58:01.893Z,41.5
2022-08-12T12:59:04.348Z,41.4
2022-08-12T13:00:06.608Z,41.4
2022-08-12T13:01:42.457Z,41.4
2022-08-12T13:02:55.538Z,41.5
2022-08-12T13:04:04.002Z,41.6
2022-08-12T13:05:28.799Z,41.7
2022-08-12T13:06:36.178Z,41.7
2022-08-12T13:08:02.650Z,41.7
2022-08-12T13:09:13.496Z,41.7
2022-08-12T13:10:17.394Z,41.9
2022-08-12T13:11:20.842Z,42
2022-08-12T13:12:54.344Z,41.7
2022-08-12T13:14:31.633Z,41.8
2022-08-12T13:15:49.801Z,41.7
2022-08-12T13:16:54.505Z,41.8
2022-08-12T13:18:06.144Z,41.9
2022-08-12T13:19:08.958Z,41.8
2022-08-12T13:20:11.331Z,41.7
2022-08-12T13:21:45.400Z,41.7
2022-08-12T13:22:47.200Z,41.7
2022-08-12T13:23:49.611Z,41.8
2022-08-12T13:24:59.432Z,41.7
2022-08-12T13:26:01.497Z,41.7
2022-08-12T13:27:08.338Z,41.7
2022-08-12T13:28:13.862Z,41.6
2022-08-12T13:29:16.993Z,41.8
2022-08-12T13:30:25.381Z,41.8
2022-08-12T13:31:28.096Z,41.8
2022-08-12T13:32:58.369Z,41.5
2022-08-12T13:34:37.609Z,41.6
2022-08-12T13:36:20.483Z,41.7
2022-08-12T13:37:24.770Z,42
2022-08-12T13:38:57.566Z,42
2022-08-12T13:39:59.659Z,42
2022-08-12T13:41:02.900Z,42
2022-08-12T13:42:15.309Z,41.9
2022-08-12T13:43:44.578Z,41.9
2022-08-12T13:44:53.879Z,41.7
2022-08-12T13:45:56.378Z,41.6
2022-08-12T13:47:21.943Z,41.8
2022-08-12T13:48:30.164Z,41.7
2022-08-12T13:49:57.173Z,41.7
2022-08-12T13:51:05.935Z,41.7
2022-08-12T13:52:09.356Z,41.6
2022-08-12T13:54:14.050Z,41.5
2022-08-12T13:55:16.160Z,41.4
2022-08-12T13:56:23.019Z,41.6
2022-08-12T13:57:26.872Z,41.6
2022-08-12T13:58:36.232Z,41.3
2022-08-12T14:00:02.414Z,41.5
2022-08-12T14:01:09.665Z,41.2
2022-08-12T14:02:11.990Z,41.3
2022-08-12T14:03:14.530Z,41.1
2022-08-12T14:04:21.162Z,41.1
2022-08-12T14:05:40.221Z,41.3
2022-08-12T14:06:50.023Z,41.5
2022-08-12T14:07:55.613Z,41.5
2022-08-12T14:08:59.762Z,41.4
2022-08-12T14:10:29.873Z,41.3
2022-08-12T14:11:33.220Z,41.3
2022-08-12T14:12:37.649Z,41.2
2022-08-12T14:14:16.611Z,41.3
2022-08-12T14:15:37.507Z,41.5
2022-08-12T14:16:53.847Z,41.4
2022-08-12T14:17:57.883Z,41.4
2022-08-12T14:19:20.150Z,41.4
2022-08-12T14:20:50.202Z,41.5
2022-08-12T14:22:06.763Z,41.5
2022-08-12T14:24:12.098Z,41.3
2022-08-12T14:25:17.959Z,41.4
2022-08-12T14:26:22.500Z,41.4
2022-08-12T14:28:09.691Z,41.3
2022-08-12T14:30:29.874Z,41.3
2022-08-12T14:31:33.245Z,41.7
2022-08-12T14:32:39.277Z,41.8
2022-08-12T14:33:45.660Z,41.6
2022-08-12T14:34:47.681Z,41.6
2022-08-12T14:35:52.091Z,41.7
2022-08-12T14:36:55.739Z,41.6
2022-08-12T14:38:01.839Z,41.6
2022-08-12T14:39:05.773Z,41.5
2022-08-12T14:40:08.826Z,41.5
2022-08-12T14:41:11.786Z,41.6
2022-08-12T14:42:20.587Z,41.7
2022-08-12T14:45:01.347Z,41.9
2022-08-12T14:46:10.074Z,41.8
2022-08-12T14:47:12.152Z,41.8
2022-08-12T14:48:15.836Z,41.7
2022-08-12T14:58:35.962Z,42
2022-08-12T15:00:01.126Z,41.9
2022-08-12T15:01:07.825Z,41.8
2022-08-12T15:02:11.811Z,41.9
2022-08-12T15:03:17.077Z,41.8
2022-08-12T15:04:19.085Z,41.8
2022-08-12T15:06:54.126Z,41.8
2022-08-12T15:08:10.071Z,41.9
2022-08-12T15:09:14.061Z,42
2022-08-12T15:10:35.298Z,42.1
2022-08-12T15:12:14.693Z,42.2
2022-08-12T15:13:17.419Z,42
2022-08-12T15:14:22.383Z,42
2022-08-12T15:15:25.459Z,42
2022-08-12T15:16:28.268Z,42
2022-08-12T15:17:39.303Z,41.9
2022-08-12T15:19:00.386Z,41.9
2022-08-12T15:22:54.965Z,42.1
2022-08-12T15:23:58.831Z,42.1
2022-08-12T15:25:02.731Z,42
2022-08-12T15:26:05.476Z,42
2022-08-12T15:27:11.160Z,42.1
2022-08-12T15:28:25.357Z,42.1
2022-08-12T15:29:30.217Z,42.1
2022-08-12T15:30:34.427Z,42
2022-08-12T15:32:31.951Z,42
2022-08-12T15:33:47.125Z,42.2
2022-08-12T15:34:54.142Z,42.2
2022-08-12T15:35:56.479Z,41.9
2022-08-12T15:37:00.344Z,41.7
2022-08-12T15:38:20.802Z,41.6
2022-08-12T15:39:29.504Z,41.4
2022-08-12T15:40:49.131Z,41.3
2022-08-12T15:42:04.553Z,41.3
2022-08-12T15:43:10.083Z,41.4
2022-08-12T15:44:46.785Z,41.5
2022-08-12T15:45:48.798Z,41.5
2022-08-12T15:46:54.032Z,41.6
2022-08-12T15:48:26.967Z,41.7
2022-08-12T15:50:05.554Z,41.6
2022-08-12T15:51:10.006Z,41.6
2022-08-12T15:52:29.580Z,41.5
2022-08-12T15:53:32.314Z,41.4
2022-08-12T15:54:47.230Z,41.3
2022-08-12T15:55:57.533Z,41.4
2022-08-12T15:57:10.554Z,41.3
2022-08-12T15:58:34.701Z,41.3
2022-08-12T16:00:34.829Z,41.3
2022-08-12T16:01:37.471Z,41.1
2022-08-12T16:02:39.611Z,41.1
2022-08-12T16:04:01.617Z,41.1
2022-08-12T16:07:09.454Z,41.1
2022-08-12T16:08:28.541Z,40.8
2022-08-12T16:10:10.206Z,40.7
2022-08-12T16:11:20.125Z,40.8
2022-08-12T16:12:27.709Z,40.8
2022-08-12T16:13:36.479Z,40.9
2022-08-12T16:14:40.132Z,41
2022-08-12T16:16:23.164Z,40.9
2022-08-12T16:18:21.615Z,40.7
2022-08-12T16:20:07.039Z,40.2
2022-08-12T16:21:59.556Z,40
2022-08-12T16:24:01.809Z,39.8
2022-08-12T16:25:06.268Z,39.9
2022-08-12T16:26:34.325Z,39.9
2022-08-12T16:27:40.881Z,39.8
2022-08-12T16:28:49.049Z,39.8
2022-08-12T16:29:55.863Z,39.9
2022-08-12T16:30:58.488Z,39.7
2022-08-12T16:32:01.725Z,39.7
2022-08-12T16:33:05.720Z,39.7
2022-08-12T16:34:58.228Z,39.7
2022-08-12T16:36:04.623Z,39.7
2022-08-12T16:37:08.398Z,39.7
2022-08-12T16:38:31.417Z,39.6
2022-08-12T16:40:07.271Z,39.5
2022-08-12T16:41:10.969Z,39.4
2022-08-12T16:42:13.342Z,39.3
2022-08-12T16:43:16.379Z,39.1
2022-08-12T16:44:35.441Z,39.1
2022-08-12T16:46:35.193Z,39.1
2022-08-12T16:48:02.254Z,39
2022-08-12T16:49:16.145Z,38.8
2022-08-12T16:50:32.503Z,38.7
2022-08-12T16:51:48.229Z,38.6
2022-08-12T16:52:50.591Z,38.4
2022-08-12T16:53:53.167Z,38.3
2022-08-12T16:54:57.776Z,38.3
2022-08-12T16:56:01.813Z,38.1
2022-08-12T16:57:07.156Z,38.1
2022-08-12T16:58:32.263Z,38
2022-08-12T16:59:56.080Z,37.9
2022-08-12T17:01:05.907Z,37.8
2022-08-12T17:02:34.608Z,37.8
2022-08-12T17:03:55.775Z,37.8
2022-08-12T17:05:04.852Z,37.6
2022-08-12T17:06:10.362Z,37.7
2022-08-12T17:07:24.510Z,37.4
2022-08-12T17:08:31.365Z,37.4
2022-08-12T17:09:41.707Z,37.4
2022-08-12T17:10:54.462Z,37.1
2022-08-12T17:11:58.597Z,37
2022-08-12T17:13:14.009Z,37
2022-08-12T17:14:16.628Z,36.9
2022-08-12T17:16:19.537Z,36.8